sensor_id;sensor_type;location;lat;lon;timestamp;temperature;humidity
50544;DHT22;41176;44.032;20.900;2023-03-03T00:00:22;7.00;99.90
50544;DHT22;41176;44.032;20.900;2023-03-03T00:02:48;6.90;99.90
50544;DHT22;41176;44.032;20.900;2023-03-03T00:05:13;6.90;99.90
50544;DHT22;41176;44.032;20.900;2023-03-03T00:07:45;6.90;99.90
50544;DHT22;41176;44.032;20.900;2023-03-03T00:10:11;6.90;99.90
50544;DHT22;41176;44.032;20.900;2023-03-03T00:12:47;6.80;99.90
50544;DHT22;41176;44.032;20.900;2023-03-03T00:15:18;6.70;99.90
50544;DHT22;41176;44.032;20.900;2023-03-03T00:17:45;6.60;99.90
50544;DHT22;41176;44.032;20.900;2023-03-03T00:31:16;6.70;99.90
50544;DHT22;41176;44.032;20.900;2023-03-03T00:33:47;6.70;99.90
50544;DHT22;41176;44.032;20.900;2023-03-03T00:42:16;6.80;99.90
50544;DHT22;41176;44.032;20.900;2023-03-03T00:44:56;6.70;99.90
50544;DHT22;41176;44.032;20.900;2023-03-03T00:47:30;6.70;99.90
50544;DHT22;41176;44.032;20.900;2023-03-03T00:50:16;6.80;99.90
50544;DHT22;41176;44.032;20.900;2023-03-03T00:55:25;6.80;99.90
50544;DHT22;41176;44.032;20.900;2023-03-03T00:57:51;6.80;99.90
50544;DHT22;41176;44.032;20.900;2023-03-03T01:00:18;6.70;99.90
50544;DHT22;41176;44.032;20.900;2023-03-03T01:02:43;6.70;99.90
50544;DHT22;41176;44.032;20.900;2023-03-03T01:05:13;6.70;99.90
50544;DHT22;41176;44.032;20.900;2023-03-03T01:07:39;6.60;99.90
50544;DHT22;41176;44.032;20.900;2023-03-03T01:10:05;6.70;99.90
50544;DHT22;41176;44.032;20.900;2023-03-03T01:12:31;6.60;99.90
50544;DHT22;41176;44.032;20.900;2023-03-03T01:14:57;6.60;99.90
50544;DHT22;41176;44.032;20.900;2023-03-03T01:17:27;6.60;99.90
50544;DHT22;41176;44.032;20.900;2023-03-03T01:19:53;6.60;99.90
50544;DHT22;41176;44.032;20.900;2023-03-03T01:22:19;6.60;99.90
50544;DHT22;41176;44.032;20.900;2023-03-03T01:24:44;6.60;99.90
50544;DHT22;41176;44.032;20.900;2023-03-03T01:27:10;6.60;99.90
50544;DHT22;41176;44.032;20.900;2023-03-03T01:29:36;6.60;99.90
50544;DHT22;41176;44.032;20.900;2023-03-03T01:32:01;6.60;99.90
50544;DHT22;41176;44.032;20.900;2023-03-03T01:34:27;6.60;99.90
50544;DHT22;41176;44.032;20.900;2023-03-03T01:36:53;6.60;99.90
50544;DHT22;41176;44.032;20.900;2023-03-03T01:39:18;6.60;99.90
50544;DHT22;41176;44.032;20.900;2023-03-03T01:41:44;6.60;99.90
50544;DHT22;41176;44.032;20.900;2023-03-03T01:44:14;6.60;99.90
50544;DHT22;41176;44.032;20.900;2023-03-03T01:47:11;6.60;99.90
50544;DHT22;41176;44.032;20.900;2023-03-03T01:50:14;6.60;99.90
50544;DHT22;41176;44.032;20.900;2023-03-03T01:52:33;6.60;99.90
50544;DHT22;41176;44.032;20.900;2023-03-03T01:55:07;6.60;99.90
50544;DHT22;41176;44.032;20.900;2023-03-03T01:57:39;6.50;99.90
50544;DHT22;41176;44.032;20.900;2023-03-03T02:00:06;6.50;99.90
50544;DHT22;41176;44.032;20.900;2023-03-03T02:02:33;6.30;99.90
50544;DHT22;41176;44.032;20.900;2023-03-03T02:05:00;6.40;99.90
50544;DHT22;41176;44.032;20.900;2023-03-03T02:07:27;6.40;99.90
50544;DHT22;41176;44.032;20.900;2023-03-03T02:10:05;6.40;99.90
50544;DHT22;41176;44.032;20.900;2023-03-03T02:15:25;6.40;99.90
50544;DHT22;41176;44.032;20.900;2023-03-03T02:17:54;6.40;99.90
50544;DHT22;41176;44.032;20.900;2023-03-03T02:28:37;6.30;99.90
50544;DHT22;41176;44.032;20.900;2023-03-03T02:31:06;6.20;99.90
50544;DHT22;41176;44.032;20.900;2023-03-03T02:33:32;6.30;99.90
50544;DHT22;41176;44.032;20.900;2023-03-03T02:35:58;6.30;99.90
50544;DHT22;41176;44.032;20.900;2023-03-03T02:41:17;6.10;99.90
50544;DHT22;41176;44.032;20.900;2023-03-03T02:44:31;6.20;99.90
50544;DHT22;41176;44.032;20.900;2023-03-03T02:46:39;6.30;99.90
50544;DHT22;41176;44.032;20.900;2023-03-03T02:49:06;6.30;99.90
50544;DHT22;41176;44.032;20.900;2023-03-03T02:51:32;6.30;99.90
50544;DHT22;41176;44.032;20.900;2023-03-03T02:53:58;6.30;99.90
50544;DHT22;41176;44.032;20.900;2023-03-03T02:56:26;6.30;99.90
50544;DHT22;41176;44.032;20.900;2023-03-03T02:58:52;6.40;99.90
50544;DHT22;41176;44.032;20.900;2023-03-03T03:01:18;6.20;99.90
50544;DHT22;41176;44.032;20.900;2023-03-03T03:25:40;6.30;99.90
50544;DHT22;41176;44.032;20.900;2023-03-03T03:28:29;6.30;99.90
50544;DHT22;41176;44.032;20.900;2023-03-03T03:34:01;6.30;99.90
50544;DHT22;41176;44.032;20.900;2023-03-03T03:37:06;6.30;99.90
50544;DHT22;41176;44.032;20.900;2023-03-03T03:39:45;6.40;99.90
50544;DHT22;41176;44.032;20.900;2023-03-03T03:57:17;6.30;99.90
50544;DHT22;41176;44.032;20.900;2023-03-03T03:59:50;6.20;99.90
50544;DHT22;41176;44.032;20.900;2023-03-03T04:02:24;6.20;99.90
50544;DHT22;41176;44.032;20.900;2023-03-03T04:05:21;6.10;99.90
50544;DHT22;41176;44.032;20.900;2023-03-03T04:46:00;6.20;99.90
50544;DHT22;41176;44.032;20.900;2023-03-03T04:48:31;6.20;99.90
50544;DHT22;41176;44.032;20.900;2023-03-03T04:51:08;6.20;99.90
50544;DHT22;41176;44.032;20.900;2023-03-03T04:53:47;6.10;99.90
50544;DHT22;41176;44.032;20.900;2023-03-03T04:56:13;6.20;99.90
50544;DHT22;41176;44.032;20.900;2023-03-03T04:58:41;6.10;99.90
50544;DHT22;41176;44.032;20.900;2023-03-03T05:01:15;6.10;99.90
50544;DHT22;41176;44.032;20.900;2023-03-03T05:03:44;6.10;99.90
50544;DHT22;41176;44.032;20.900;2023-03-03T05:06:10;6.20;99.90
50544;DHT22;41176;44.032;20.900;2023-03-03T05:08:36;6.20;99.90
50544;DHT22;41176;44.032;20.900;2023-03-03T05:11:05;6.30;99.90
50544;DHT22;41176;44.032;20.900;2023-03-03T05:13:31;6.30;99.90
50544;DHT22;41176;44.032;20.900;2023-03-03T05:15:56;6.20;99.90
50544;DHT22;41176;44.032;20.900;2023-03-03T05:18:23;6.10;99.90
50544;DHT22;41176;44.032;20.900;2023-03-03T05:20:50;6.10;99.90
50544;DHT22;41176;44.032;20.900;2023-03-03T05:23:17;6.10;99.90
50544;DHT22;41176;44.032;20.900;2023-03-03T05:25:46;6.00;99.90
50544;DHT22;41176;44.032;20.900;2023-03-03T05:28:11;6.00;99.90
50544;DHT22;41176;44.032;20.900;2023-03-03T05:30:37;6.00;99.90
50544;DHT22;41176;44.032;20.900;2023-03-03T05:33:04;6.00;99.90
50544;DHT22;41176;44.032;20.900;2023-03-03T05:35:30;6.00;99.90
50544;DHT22;41176;44.032;20.900;2023-03-03T05:37:56;6.00;99.90
50544;DHT22;41176;44.032;20.900;2023-03-03T05:40:24;6.00;99.90
50544;DHT22;41176;44.032;20.900;2023-03-03T06:04:14;5.90;99.90
50544;DHT22;41176;44.032;20.900;2023-03-03T06:06:53;6.00;99.90
50544;DHT22;41176;44.032;20.900;2023-03-03T06:23:51;6.10;99.90
50544;DHT22;41176;44.032;20.900;2023-03-03T06:26:17;6.20;99.90
50544;DHT22;41176;44.032;20.900;2023-03-03T06:28:43;6.10;99.90
50544;DHT22;41176;44.032;20.900;2023-03-03T06:31:11;6.10;99.90
50544;DHT22;41176;44.032;20.900;2023-03-03T06:33:36;6.10;99.90
50544;DHT22;41176;44.032;20.900;2023-03-03T06:36:22;6.10;99.90
50544;DHT22;41176;44.032;20.900;2023-03-03T06:42:46;6.10;99.90
50544;DHT22;41176;44.032;20.900;2023-03-03T06:45:37;6.20;99.90
50544;DHT22;41176;44.032;20.900;2023-03-03T07:12:10;6.20;99.90
50544;DHT22;41176;44.032;20.900;2023-03-03T07:22:01;6.20;99.90
50544;DHT22;41176;44.032;20.900;2023-03-03T07:24:52;6.30;99.90
50544;DHT22;41176;44.032;20.900;2023-03-03T07:27:21;6.20;99.90
50544;DHT22;41176;44.032;20.900;2023-03-03T07:29:50;6.30;99.90
50544;DHT22;41176;44.032;20.900;2023-03-03T07:32:37;6.40;99.90
50544;DHT22;41176;44.032;20.900;2023-03-03T07:35:39;6.40;99.90
50544;DHT22;41176;44.032;20.900;2023-03-03T07:40:54;6.40;99.90
50544;DHT22;41176;44.032;20.900;2023-03-03T07:43:36;6.40;99.90
50544;DHT22;41176;44.032;20.900;2023-03-03T07:46:25;6.50;99.90
50544;DHT22;41176;44.032;20.900;2023-03-03T07:48:56;6.60;99.90
50544;DHT22;41176;44.032;20.900;2023-03-03T07:51:28;6.70;99.90
50544;DHT22;41176;44.032;20.900;2023-03-03T07:57:50;6.50;99.90
50544;DHT22;41176;44.032;20.900;2023-03-03T08:03:19;6.80;99.90
50544;DHT22;41176;44.032;20.900;2023-03-03T08:05:49;6.80;99.90
50544;DHT22;41176;44.032;20.900;2023-03-03T08:18:27;7.00;99.90
50544;DHT22;41176;44.032;20.900;2023-03-03T08:21:21;7.00;99.90
50544;DHT22;41176;44.032;20.900;2023-03-03T08:23:46;7.00;99.90
50544;DHT22;41176;44.032;20.900;2023-03-03T08:26:13;7.10;99.90
50544;DHT22;41176;44.032;20.900;2023-03-03T08:28:41;7.20;99.90
50544;DHT22;41176;44.032;20.900;2023-03-03T08:31:07;7.40;99.90
50544;DHT22;41176;44.032;20.900;2023-03-03T09:41:15;9.10;99.90
50544;DHT22;41176;44.032;20.900;2023-03-03T09:50:25;9.10;99.90
50544;DHT22;41176;44.032;20.900;2023-03-03T09:55:53;9.10;99.90
50544;DHT22;41176;44.032;20.900;2023-03-03T10:07:26;9.10;99.90
50544;DHT22;41176;44.032;20.900;2023-03-03T10:17:53;9.20;99.90
50544;DHT22;41176;44.032;20.900;2023-03-03T10:26:56;9.20;99.90
50544;DHT22;41176;44.032;20.900;2023-03-03T10:29:39;9.10;99.90
50544;DHT22;41176;44.032;20.900;2023-03-03T10:43:29;8.70;99.90
50544;DHT22;41176;44.032;20.900;2023-03-03T10:51:43;8.50;99.90
50544;DHT22;41176;44.032;20.900;2023-03-03T10:54:32;8.40;99.90
50544;DHT22;41176;44.032;20.900;2023-03-03T10:57:25;8.50;99.90
50544;DHT22;41176;44.032;20.900;2023-03-03T11:00:35;8.50;99.90
50544;DHT22;41176;44.032;20.900;2023-03-03T11:05:45;8.70;99.90
50544;DHT22;41176;44.032;20.900;2023-03-03T11:08:34;8.70;99.90
50544;DHT22;41176;44.032;20.900;2023-03-03T11:14:07;8.70;99.90
50544;DHT22;41176;44.032;20.900;2023-03-03T11:36:23;9.00;99.90
50544;DHT22;41176;44.032;20.900;2023-03-03T11:38:58;9.00;99.90
50544;DHT22;41176;44.032;20.900;2023-03-03T11:41:37;8.90;99.90
50544;DHT22;41176;44.032;20.900;2023-03-03T11:44:28;8.80;99.90
50544;DHT22;41176;44.032;20.900;2023-03-03T11:46:57;8.90;99.90
50544;DHT22;41176;44.032;20.900;2023-03-03T11:58:30;9.10;99.90
50544;DHT22;41176;44.032;20.900;2023-03-03T12:01:18;9.10;99.90
50544;DHT22;41176;44.032;20.900;2023-03-03T12:04:02;9.10;99.90
50544;DHT22;41176;44.032;20.900;2023-03-03T12:06:49;9.00;99.90
50544;DHT22;41176;44.032;20.900;2023-03-03T12:12:17;9.00;99.90
50544;DHT22;41176;44.032;20.900;2023-03-03T12:15:05;9.10;99.90
50544;DHT22;41176;44.032;20.900;2023-03-03T12:25:38;9.20;99.90
50544;DHT22;41176;44.032;20.900;2023-03-03T12:28:16;9.30;99.90
50544;DHT22;41176;44.032;20.900;2023-03-03T12:36:02;9.50;99.90
50544;DHT22;41176;44.032;20.900;2023-03-03T12:42:10;9.60;99.90
50544;DHT22;41176;44.032;20.900;2023-03-03T12:47:36;9.60;99.90
50544;DHT22;41176;44.032;20.900;2023-03-03T12:55:36;9.50;99.90
50544;DHT22;41176;44.032;20.900;2023-03-03T13:01:37;9.50;99.90
50544;DHT22;41176;44.032;20.900;2023-03-03T13:12:11;9.30;99.90
50544;DHT22;41176;44.032;20.900;2023-03-03T13:14:45;9.30;99.90
50544;DHT22;41176;44.032;20.900;2023-03-03T13:17:47;9.30;99.90
50544;DHT22;41176;44.032;20.900;2023-03-03T13:26:09;9.40;99.90
50544;DHT22;41176;44.032;20.900;2023-03-03T13:28:40;9.40;99.90
50544;DHT22;41176;44.032;20.900;2023-03-03T13:31:18;9.60;99.90
50544;DHT22;41176;44.032;20.900;2023-03-03T13:33:54;9.60;99.90
50544;DHT22;41176;44.032;20.900;2023-03-03T13:39:32;9.70;99.90
50544;DHT22;41176;44.032;20.900;2023-03-03T13:42:19;9.60;99.90
50544;DHT22;41176;44.032;20.900;2023-03-03T13:44:49;9.60;99.90
50544;DHT22;41176;44.032;20.900;2023-03-03T13:47:23;9.80;99.90
50544;DHT22;41176;44.032;20.900;2023-03-03T13:50:21;9.90;99.90
50544;DHT22;41176;44.032;20.900;2023-03-03T14:16:16;9.80;99.90
50544;DHT22;41176;44.032;20.900;2023-03-03T14:18:55;9.80;99.90
50544;DHT22;41176;44.032;20.900;2023-03-03T14:21:48;9.80;99.90
50544;DHT22;41176;44.032;20.900;2023-03-03T14:24:22;9.80;99.90
50544;DHT22;41176;44.032;20.900;2023-03-03T14:26:56;9.70;99.90
50544;DHT22;41176;44.032;20.900;2023-03-03T14:31:55;9.60;99.90
50544;DHT22;41176;44.032;20.900;2023-03-03T14:36:49;9.70;99.90
50544;DHT22;41176;44.032;20.900;2023-03-03T14:39:36;9.60;99.90
50544;DHT22;41176;44.032;20.900;2023-03-03T14:42:54;9.60;99.90
50544;DHT22;41176;44.032;20.900;2023-03-03T14:45:04;9.60;99.90
50544;DHT22;41176;44.032;20.900;2023-03-03T14:47:45;9.50;99.90
50544;DHT22;41176;44.032;20.900;2023-03-03T15:06:33;9.50;99.90
50544;DHT22;41176;44.032;20.900;2023-03-03T15:12:43;9.60;99.90
50544;DHT22;41176;44.032;20.900;2023-03-03T15:15:48;9.60;99.90
50544;DHT22;41176;44.032;20.900;2023-03-03T15:18:15;9.60;99.90
50544;DHT22;41176;44.032;20.900;2023-03-03T15:21:02;9.70;99.90
50544;DHT22;41176;44.032;20.900;2023-03-03T15:32:07;9.70;99.90
50544;DHT22;41176;44.032;20.900;2023-03-03T15:35:02;9.80;99.90
50544;DHT22;41176;44.032;20.900;2023-03-03T15:38:02;9.80;99.90
50544;DHT22;41176;44.032;20.900;2023-03-03T15:41:00;9.70;99.90
50544;DHT22;41176;44.032;20.900;2023-03-03T15:47:18;9.60;99.90
50544;DHT22;41176;44.032;20.900;2023-03-03T16:01:31;9.30;99.90
50544;DHT22;41176;44.032;20.900;2023-03-03T16:04:09;9.30;99.90
50544;DHT22;41176;44.032;20.900;2023-03-03T16:07:15;9.40;99.90
50544;DHT22;41176;44.032;20.900;2023-03-03T16:10:06;9.40;99.90
50544;DHT22;41176;44.032;20.900;2023-03-03T16:12:54;9.30;99.90
50544;DHT22;41176;44.032;20.900;2023-03-03T16:16:06;9.30;99.90
50544;DHT22;41176;44.032;20.900;2023-03-03T16:19:02;9.20;99.90
50544;DHT22;41176;44.032;20.900;2023-03-03T16:25:09;9.00;99.90
50544;DHT22;41176;44.032;20.900;2023-03-03T16:28:09;8.90;99.90
50544;DHT22;41176;44.032;20.900;2023-03-03T16:39:04;8.80;99.90
50544;DHT22;41176;44.032;20.900;2023-03-03T16:41:41;8.80;99.90
50544;DHT22;41176;44.032;20.900;2023-03-03T16:44:35;8.70;99.90
50544;DHT22;41176;44.032;20.900;2023-03-03T16:54:10;8.80;99.90
50544;DHT22;41176;44.032;20.900;2023-03-03T17:09:38;8.70;99.90
50544;DHT22;41176;44.032;20.900;2023-03-03T17:25:43;8.80;99.90
50544;DHT22;41176;44.032;20.900;2023-03-03T17:31:40;8.70;99.90
50544;DHT22;41176;44.032;20.900;2023-03-03T17:40:10;8.70;99.90
50544;DHT22;41176;44.032;20.900;2023-03-03T17:45:39;8.70;99.90
50544;DHT22;41176;44.032;20.900;2023-03-03T17:54:06;8.80;99.90
50544;DHT22;41176;44.032;20.900;2023-03-03T17:56:56;8.80;99.90
50544;DHT22;41176;44.032;20.900;2023-03-03T17:59:54;8.80;99.90
50544;DHT22;41176;44.032;20.900;2023-03-03T18:05:23;8.70;99.90
50544;DHT22;41176;44.032;20.900;2023-03-03T18:24:38;8.70;99.90
50544;DHT22;41176;44.032;20.900;2023-03-03T18:35:22;8.70;99.90
50544;DHT22;41176;44.032;20.900;2023-03-03T18:37:48;8.70;99.90
50544;DHT22;41176;44.032;20.900;2023-03-03T18:42:46;8.80;99.90
50544;DHT22;41176;44.032;20.900;2023-03-03T18:48:08;8.70;99.90
50544;DHT22;41176;44.032;20.900;2023-03-03T18:50:47;8.60;99.90
50544;DHT22;41176;44.032;20.900;2023-03-03T18:53:25;8.60;99.90
50544;DHT22;41176;44.032;20.900;2023-03-03T18:56:10;8.70;99.90
50544;DHT22;41176;44.032;20.900;2023-03-03T18:58:41;8.70;99.90
50544;DHT22;41176;44.032;20.900;2023-03-03T19:01:33;8.80;99.90
50544;DHT22;41176;44.032;20.900;2023-03-03T19:09:11;8.70;99.90
50544;DHT22;41176;44.032;20.900;2023-03-03T19:16:44;8.70;99.90
50544;DHT22;41176;44.032;20.900;2023-03-03T19:19:16;8.60;99.90
50544;DHT22;41176;44.032;20.900;2023-03-03T19:21:46;8.50;99.90
50544;DHT22;41176;44.032;20.900;2023-03-03T19:30:31;8.60;99.90
50544;DHT22;41176;44.032;20.900;2023-03-03T19:32:47;8.50;99.90
50544;DHT22;41176;44.032;20.900;2023-03-03T19:41:39;8.50;99.90
50544;DHT22;41176;44.032;20.900;2023-03-03T19:44:28;8.50;99.90
50544;DHT22;41176;44.032;20.900;2023-03-03T19:47:15;8.50;99.90
50544;DHT22;41176;44.032;20.900;2023-03-03T20:18:59;8.50;99.90
50544;DHT22;41176;44.032;20.900;2023-03-03T20:25:26;8.50;99.90
50544;DHT22;41176;44.032;20.900;2023-03-03T20:34:25;8.40;99.90
50544;DHT22;41176;44.032;20.900;2023-03-03T20:42:10;8.50;99.90
50544;DHT22;41176;44.032;20.900;2023-03-03T20:56:23;8.50;99.90
50544;DHT22;41176;44.032;20.900;2023-03-03T20:59:11;8.50;99.90
50544;DHT22;41176;44.032;20.900;2023-03-03T21:05:14;8.50;99.90
50544;DHT22;41176;44.032;20.900;2023-03-03T21:07:58;8.50;99.90
50544;DHT22;41176;44.032;20.900;2023-03-03T21:10:30;8.50;99.90
50544;DHT22;41176;44.032;20.900;2023-03-03T21:13:19;8.40;99.90
50544;DHT22;41176;44.032;20.900;2023-03-03T21:16:04;8.40;99.90
50544;DHT22;41176;44.032;20.900;2023-03-03T21:18:32;8.30;99.90
50544;DHT22;41176;44.032;20.900;2023-03-03T21:20:57;8.30;99.90
50544;DHT22;41176;44.032;20.900;2023-03-03T21:23:23;8.30;99.90
50544;DHT22;41176;44.032;20.900;2023-03-03T21:25:51;8.20;99.90
50544;DHT22;41176;44.032;20.900;2023-03-03T21:28:26;8.10;99.90
50544;DHT22;41176;44.032;20.900;2023-03-03T21:36:48;8.10;99.90
50544;DHT22;41176;44.032;20.900;2023-03-03T21:49:04;8.20;99.90
50544;DHT22;41176;44.032;20.900;2023-03-03T21:51:30;8.20;99.90
50544;DHT22;41176;44.032;20.900;2023-03-03T21:53:59;8.20;99.90
50544;DHT22;41176;44.032;20.900;2023-03-03T21:56:35;8.30;99.90
50544;DHT22;41176;44.032;20.900;2023-03-03T21:59:11;8.40;99.90
50544;DHT22;41176;44.032;20.900;2023-03-03T22:01:51;8.30;99.90
50544;DHT22;41176;44.032;20.900;2023-03-03T22:04:17;8.40;99.90
50544;DHT22;41176;44.032;20.900;2023-03-03T22:06:43;8.40;99.90
50544;DHT22;41176;44.032;20.900;2023-03-03T22:09:10;8.40;99.90
50544;DHT22;41176;44.032;20.900;2023-03-03T22:11:36;8.40;99.90
50544;DHT22;41176;44.032;20.900;2023-03-03T22:14:04;8.40;99.90
50544;DHT22;41176;44.032;20.900;2023-03-03T22:16:30;8.40;99.90
50544;DHT22;41176;44.032;20.900;2023-03-03T22:18:57;8.30;99.90
50544;DHT22;41176;44.032;20.900;2023-03-03T22:21:23;8.30;99.90
50544;DHT22;41176;44.032;20.900;2023-03-03T22:23:49;8.30;99.90
50544;DHT22;41176;44.032;20.900;2023-03-03T22:26:14;8.30;99.90
50544;DHT22;41176;44.032;20.900;2023-03-03T22:28:40;8.30;99.90
50544;DHT22;41176;44.032;20.900;2023-03-03T22:31:06;8.40;99.90
50544;DHT22;41176;44.032;20.900;2023-03-03T22:33:32;8.30;99.90
50544;DHT22;41176;44.032;20.900;2023-03-03T22:35:57;8.30;99.90
50544;DHT22;41176;44.032;20.900;2023-03-03T22:38:23;8.20;99.90
50544;DHT22;41176;44.032;20.900;2023-03-03T22:40:50;8.10;99.90
50544;DHT22;41176;44.032;20.900;2023-03-03T22:43:16;8.10;99.90
50544;DHT22;41176;44.032;20.900;2023-03-03T22:45:42;8.10;99.90
50544;DHT22;41176;44.032;20.900;2023-03-03T22:48:09;8.00;99.90
50544;DHT22;41176;44.032;20.900;2023-03-03T22:50:35;8.00;99.90
50544;DHT22;41176;44.032;20.900;2023-03-03T22:53:07;8.00;99.90
50544;DHT22;41176;44.032;20.900;2023-03-03T22:55:33;8.00;99.90
50544;DHT22;41176;44.032;20.900;2023-03-03T22:58:02;7.90;99.90
50544;DHT22;41176;44.032;20.900;2023-03-03T23:00:28;7.90;99.90
50544;DHT22;41176;44.032;20.900;2023-03-03T23:02:58;7.90;99.90
50544;DHT22;41176;44.032;20.900;2023-03-03T23:05:23;7.90;99.90
50544;DHT22;41176;44.032;20.900;2023-03-03T23:07:49;7.90;99.90
50544;DHT22;41176;44.032;20.900;2023-03-03T23:10:15;7.90;99.90
50544;DHT22;41176;44.032;20.900;2023-03-03T23:12:41;7.90;99.90
50544;DHT22;41176;44.032;20.900;2023-03-03T23:15:08;7.90;99.90
50544;DHT22;41176;44.032;20.900;2023-03-03T23:17:42;7.90;99.90
50544;DHT22;41176;44.032;20.900;2023-03-03T23:20:09;7.90;99.90
50544;DHT22;41176;44.032;20.900;2023-03-03T23:22:35;7.90;99.90
50544;DHT22;41176;44.032;20.900;2023-03-03T23:25:01;8.00;99.90
50544;DHT22;41176;44.032;20.900;2023-03-03T23:27:27;8.00;99.90
50544;DHT22;41176;44.032;20.900;2023-03-03T23:29:53;8.00;99.90
50544;DHT22;41176;44.032;20.900;2023-03-03T23:32:20;8.00;99.90
50544;DHT22;41176;44.032;20.900;2023-03-03T23:34:53;7.90;99.90
50544;DHT22;41176;44.032;20.900;2023-03-03T23:37:19;7.80;99.90
50544;DHT22;41176;44.032;20.900;2023-03-03T23:39:45;7.90;99.90
50544;DHT22;41176;44.032;20.900;2023-03-03T23:42:11;7.90;99.90
50544;DHT22;41176;44.032;20.900;2023-03-03T23:44:38;7.90;99.90
50544;DHT22;41176;44.032;20.900;2023-03-03T23:47:05;7.90;99.90
50544;DHT22;41176;44.032;20.900;2023-03-03T23:49:54;7.80;99.90
50544;DHT22;41176;44.032;20.900;2023-03-03T23:52:20;7.90;99.90
50544;DHT22;41176;44.032;20.900;2023-03-03T23:54:46;7.90;99.90
50544;DHT22;41176;44.032;20.900;2023-03-03T23:57:11;7.90;99.90
50544;DHT22;41176;44.032;20.900;2023-03-03T23:59:37;7.90;99.90
